sensor_id;sensor_type;location;lat;lon;timestamp;P1;durP1;ratioP1;P2;durP2;ratioP2
43580;SDS011;29175;51.030;4.606;2022-07-29T00:00:52;5.70;;;1.75;;
43580;SDS011;29175;51.030;4.606;2022-07-29T00:03:17;6.78;;;1.90;;
43580;SDS011;29175;51.030;4.606;2022-07-29T00:08:13;8.93;;;1.80;;
43580;SDS011;29175;51.030;4.606;2022-07-29T00:10:42;3.83;;;1.83;;
43580;SDS011;29175;51.030;4.606;2022-07-29T00:15:37;5.43;;;2.25;;
43580;SDS011;29175;51.030;4.606;2022-07-29T00:18:04;5.75;;;1.88;;
43580;SDS011;29175;51.030;4.606;2022-07-29T00:20:32;12.13;;;2.00;;
43580;SDS011;29175;51.030;4.606;2022-07-29T00:23:01;6.72;;;1.70;;
43580;SDS011;29175;51.030;4.606;2022-07-29T00:25:29;5.03;;;1.80;;
43580;SDS011;29175;51.030;4.606;2022-07-29T00:27:54;3.92;;;2.00;;
43580;SDS011;29175;51.030;4.606;2022-07-29T00:32:51;7.72;;;2.10;;
43580;SDS011;29175;51.030;4.606;2022-07-29T00:35:19;3.85;;;1.90;;
43580;SDS011;29175;51.030;4.606;2022-07-29T00:38:03;3.40;;;1.83;;
43580;SDS011;29175;51.030;4.606;2022-07-29T00:40:29;8.25;;;2.00;;
43580;SDS011;29175;51.030;4.606;2022-07-29T00:42:56;10.95;;;2.22;;
43580;SDS011;29175;51.030;4.606;2022-07-29T00:45:22;6.38;;;2.30;;
43580;SDS011;29175;51.030;4.606;2022-07-29T00:47:48;5.90;;;2.38;;
43580;SDS011;29175;51.030;4.606;2022-07-29T00:50:14;4.15;;;1.90;;
43580;SDS011;29175;51.030;4.606;2022-07-29T00:52:42;7.90;;;2.17;;
43580;SDS011;29175;51.030;4.606;2022-07-29T00:55:11;6.53;;;2.13;;
43580;SDS011;29175;51.030;4.606;2022-07-29T00:57:45;5.68;;;1.73;;
43580;SDS011;29175;51.030;4.606;2022-07-29T01:00:13;9.32;;;1.98;;
43580;SDS011;29175;51.030;4.606;2022-07-29T01:07:43;7.90;;;2.13;;
43580;SDS011;29175;51.030;4.606;2022-07-29T01:10:12;5.15;;;1.90;;
43580;SDS011;29175;51.030;4.606;2022-07-29T01:12:39;3.97;;;2.10;;
43580;SDS011;29175;51.030;4.606;2022-07-29T01:15:09;9.43;;;2.03;;
43580;SDS011;29175;51.030;4.606;2022-07-29T01:28:49;9.50;;;2.55;;
43580;SDS011;29175;51.030;4.606;2022-07-29T01:34:11;6.18;;;2.00;;
43580;SDS011;29175;51.030;4.606;2022-07-29T01:39:36;5.75;;;2.28;;
43580;SDS011;29175;51.030;4.606;2022-07-29T01:44:59;6.45;;;2.33;;
43580;SDS011;29175;51.030;4.606;2022-07-29T01:51:13;9.90;;;2.00;;
43580;SDS011;29175;51.030;4.606;2022-07-29T01:54:20;6.82;;;2.42;;
43580;SDS011;29175;51.030;4.606;2022-07-29T01:57:11;5.22;;;2.42;;
43580;SDS011;29175;51.030;4.606;2022-07-29T02:02:08;5.97;;;2.25;;
43580;SDS011;29175;51.030;4.606;2022-07-29T02:07:06;6.18;;;2.38;;
43580;SDS011;29175;51.030;4.606;2022-07-29T02:09:37;7.38;;;2.42;;
43580;SDS011;29175;51.030;4.606;2022-07-29T02:12:06;4.38;;;2.08;;
43580;SDS011;29175;51.030;4.606;2022-07-29T02:14:36;4.88;;;2.30;;
43580;SDS011;29175;51.030;4.606;2022-07-29T02:17:08;5.80;;;2.03;;
43580;SDS011;29175;51.030;4.606;2022-07-29T02:19:37;5.60;;;2.22;;
43580;SDS011;29175;51.030;4.606;2022-07-29T02:22:05;7.20;;;2.53;;
43580;SDS011;29175;51.030;4.606;2022-07-29T02:24:36;6.55;;;1.98;;
43580;SDS011;29175;51.030;4.606;2022-07-29T02:27:05;13.13;;;2.40;;
43580;SDS011;29175;51.030;4.606;2022-07-29T02:29:34;7.47;;;2.40;;
43580;SDS011;29175;51.030;4.606;2022-07-29T02:32:02;4.40;;;2.40;;
43580;SDS011;29175;51.030;4.606;2022-07-29T02:34:30;9.35;;;2.58;;
43580;SDS011;29175;51.030;4.606;2022-07-29T02:37:01;5.43;;;2.05;;
43580;SDS011;29175;51.030;4.606;2022-07-29T02:39:29;5.03;;;2.28;;
43580;SDS011;29175;51.030;4.606;2022-07-29T02:42:03;8.00;;;2.58;;
43580;SDS011;29175;51.030;4.606;2022-07-29T02:44:32;5.15;;;2.25;;
43580;SDS011;29175;51.030;4.606;2022-07-29T02:55:19;6.55;;;2.40;;
43580;SDS011;29175;51.030;4.606;2022-07-29T03:00:30;5.72;;;2.67;;
43580;SDS011;29175;51.030;4.606;2022-07-29T03:03:01;5.82;;;2.47;;
43580;SDS011;29175;51.030;4.606;2022-07-29T03:05:31;7.47;;;3.05;;
43580;SDS011;29175;51.030;4.606;2022-07-29T03:08:01;7.85;;;2.53;;
43580;SDS011;29175;51.030;4.606;2022-07-29T03:10:29;12.23;;;2.83;;
43580;SDS011;29175;51.030;4.606;2022-07-29T03:12:59;6.78;;;3.13;;
43580;SDS011;29175;51.030;4.606;2022-07-29T03:17:59;4.72;;;2.60;;
43580;SDS011;29175;51.030;4.606;2022-07-29T03:20:27;6.68;;;3.03;;
43580;SDS011;29175;51.030;4.606;2022-07-29T03:22:53;12.27;;;2.75;;
43580;SDS011;29175;51.030;4.606;2022-07-29T03:25:25;6.88;;;2.60;;
43580;SDS011;29175;51.030;4.606;2022-07-29T03:27:52;9.02;;;3.13;;
43580;SDS011;29175;51.030;4.606;2022-07-29T03:30:18;7.90;;;2.50;;
43580;SDS011;29175;51.030;4.606;2022-07-29T03:32:47;4.85;;;2.83;;
43580;SDS011;29175;51.030;4.606;2022-07-29T03:37:42;7.40;;;3.10;;
43580;SDS011;29175;51.030;4.606;2022-07-29T03:40:08;6.75;;;2.80;;
43580;SDS011;29175;51.030;4.606;2022-07-29T03:42:38;6.80;;;2.90;;
43580;SDS011;29175;51.030;4.606;2022-07-29T03:45:13;10.30;;;2.90;;
43580;SDS011;29175;51.030;4.606;2022-07-29T03:50:16;6.38;;;2.67;;
43580;SDS011;29175;51.030;4.606;2022-07-29T03:52:46;8.70;;;3.50;;
43580;SDS011;29175;51.030;4.606;2022-07-29T03:55:19;8.93;;;3.42;;
43580;SDS011;29175;51.030;4.606;2022-07-29T03:57:46;7.55;;;3.15;;
43580;SDS011;29175;51.030;4.606;2022-07-29T04:00:13;6.28;;;2.80;;
43580;SDS011;29175;51.030;4.606;2022-07-29T04:02:40;8.90;;;3.47;;
43580;SDS011;29175;51.030;4.606;2022-07-29T04:05:14;5.25;;;3.00;;
43580;SDS011;29175;51.030;4.606;2022-07-29T04:07:44;6.95;;;3.28;;
43580;SDS011;29175;51.030;4.606;2022-07-29T04:10:11;10.07;;;2.97;;
43580;SDS011;29175;51.030;4.606;2022-07-29T04:12:39;7.38;;;3.15;;
43580;SDS011;29175;51.030;4.606;2022-07-29T04:15:05;6.22;;;3.50;;
43580;SDS011;29175;51.030;4.606;2022-07-29T04:17:34;8.95;;;3.50;;
43580;SDS011;29175;51.030;4.606;2022-07-29T04:20:01;6.90;;;3.50;;
43580;SDS011;29175;51.030;4.606;2022-07-29T04:22:28;8.20;;;3.70;;
43580;SDS011;29175;51.030;4.606;2022-07-29T04:24:55;6.97;;;3.20;;
43580;SDS011;29175;51.030;4.606;2022-07-29T04:27:23;7.00;;;3.17;;
43580;SDS011;29175;51.030;4.606;2022-07-29T04:29:49;7.65;;;3.35;;
43580;SDS011;29175;51.030;4.606;2022-07-29T04:32:16;7.05;;;3.22;;
43580;SDS011;29175;51.030;4.606;2022-07-29T04:34:43;7.50;;;3.22;;
43580;SDS011;29175;51.030;4.606;2022-07-29T04:37:11;8.98;;;3.13;;
43580;SDS011;29175;51.030;4.606;2022-07-29T04:39:37;5.85;;;3.30;;
43580;SDS011;29175;51.030;4.606;2022-07-29T04:42:04;5.95;;;2.80;;
43580;SDS011;29175;51.030;4.606;2022-07-29T04:44:32;12.38;;;3.10;;
43580;SDS011;29175;51.030;4.606;2022-07-29T04:46:58;5.30;;;2.95;;
43580;SDS011;29175;51.030;4.606;2022-07-29T04:49:24;8.60;;;3.00;;
43580;SDS011;29175;51.030;4.606;2022-07-29T04:51:50;6.63;;;3.15;;
43580;SDS011;29175;51.030;4.606;2022-07-29T04:54:20;12.30;;;3.28;;
43580;SDS011;29175;51.030;4.606;2022-07-29T04:56:45;5.97;;;3.47;;
43580;SDS011;29175;51.030;4.606;2022-07-29T04:59:14;9.43;;;3.20;;
43580;SDS011;29175;51.030;4.606;2022-07-29T05:01:41;9.55;;;3.22;;
43580;SDS011;29175;51.030;4.606;2022-07-29T05:04:07;10.90;;;3.40;;
43580;SDS011;29175;51.030;4.606;2022-07-29T05:06:34;6.93;;;3.42;;
43580;SDS011;29175;51.030;4.606;2022-07-29T05:09:00;11.52;;;3.80;;
43580;SDS011;29175;51.030;4.606;2022-07-29T05:11:27;11.27;;;4.45;;
43580;SDS011;29175;51.030;4.606;2022-07-29T05:13:53;16.33;;;3.75;;
43580;SDS011;29175;51.030;4.606;2022-07-29T05:16:20;7.72;;;3.55;;
43580;SDS011;29175;51.030;4.606;2022-07-29T05:21:17;4.93;;;3.17;;
43580;SDS011;29175;51.030;4.606;2022-07-29T05:23:45;9.07;;;3.47;;
43580;SDS011;29175;51.030;4.606;2022-07-29T05:26:12;6.43;;;3.53;;
43580;SDS011;29175;51.030;4.606;2022-07-29T05:28:38;8.48;;;3.97;;
43580;SDS011;29175;51.030;4.606;2022-07-29T05:31:06;13.02;;;3.40;;
43580;SDS011;29175;51.030;4.606;2022-07-29T05:33:33;7.82;;;3.45;;
43580;SDS011;29175;51.030;4.606;2022-07-29T05:36:00;6.78;;;3.03;;
43580;SDS011;29175;51.030;4.606;2022-07-29T05:38:25;10.23;;;3.42;;
43580;SDS011;29175;51.030;4.606;2022-07-29T05:40:52;7.13;;;3.42;;
43580;SDS011;29175;51.030;4.606;2022-07-29T05:43:21;8.25;;;3.47;;
43580;SDS011;29175;51.030;4.606;2022-07-29T05:45:48;7.40;;;2.90;;
43580;SDS011;29175;51.030;4.606;2022-07-29T05:48:15;11.05;;;3.47;;
43580;SDS011;29175;51.030;4.606;2022-07-29T05:50:42;6.80;;;3.35;;
43580;SDS011;29175;51.030;4.606;2022-07-29T05:53:08;7.45;;;3.50;;
43580;SDS011;29175;51.030;4.606;2022-07-29T05:58:05;10.00;;;3.40;;
43580;SDS011;29175;51.030;4.606;2022-07-29T06:00:30;8.10;;;4.03;;
43580;SDS011;29175;51.030;4.606;2022-07-29T06:02:58;11.30;;;3.53;;
43580;SDS011;29175;51.030;4.606;2022-07-29T06:05:25;6.53;;;3.15;;
43580;SDS011;29175;51.030;4.606;2022-07-29T06:07:52;7.97;;;3.75;;
43580;SDS011;29175;51.030;4.606;2022-07-29T06:10:19;6.53;;;3.30;;
43580;SDS011;29175;51.030;4.606;2022-07-29T06:12:47;9.60;;;3.95;;
43580;SDS011;29175;51.030;4.606;2022-07-29T06:15:14;10.25;;;3.80;;
43580;SDS011;29175;51.030;4.606;2022-07-29T06:17:41;6.70;;;3.38;;
43580;SDS011;29175;51.030;4.606;2022-07-29T06:20:07;12.32;;;3.40;;
43580;SDS011;29175;51.030;4.606;2022-07-29T06:22:35;8.68;;;3.25;;
43580;SDS011;29175;51.030;4.606;2022-07-29T06:25:03;10.70;;;3.92;;
43580;SDS011;29175;51.030;4.606;2022-07-29T06:27:30;8.75;;;3.60;;
43580;SDS011;29175;51.030;4.606;2022-07-29T06:29:56;8.50;;;3.50;;
43580;SDS011;29175;51.030;4.606;2022-07-29T06:32:22;7.68;;;3.00;;
43580;SDS011;29175;51.030;4.606;2022-07-29T06:34:49;8.40;;;3.47;;
43580;SDS011;29175;51.030;4.606;2022-07-29T06:37:16;10.32;;;3.28;;
43580;SDS011;29175;51.030;4.606;2022-07-29T06:39:42;8.48;;;3.30;;
43580;SDS011;29175;51.030;4.606;2022-07-29T06:42:10;9.40;;;3.25;;
43580;SDS011;29175;51.030;4.606;2022-07-29T06:44:42;6.82;;;3.55;;
43580;SDS011;29175;51.030;4.606;2022-07-29T06:47:08;8.85;;;3.40;;
43580;SDS011;29175;51.030;4.606;2022-07-29T06:49:34;10.50;;;3.53;;
43580;SDS011;29175;51.030;4.606;2022-07-29T06:52:03;7.00;;;3.53;;
43580;SDS011;29175;51.030;4.606;2022-07-29T06:54:35;7.28;;;3.00;;
43580;SDS011;29175;51.030;4.606;2022-07-29T06:57:02;7.70;;;2.90;;
43580;SDS011;29175;51.030;4.606;2022-07-29T06:59:28;5.38;;;2.92;;
43580;SDS011;29175;51.030;4.606;2022-07-29T07:01:53;8.18;;;3.50;;
43580;SDS011;29175;51.030;4.606;2022-07-29T07:04:20;9.38;;;3.03;;
43580;SDS011;29175;51.030;4.606;2022-07-29T07:06:46;15.10;;;2.67;;
43580;SDS011;29175;51.030;4.606;2022-07-29T07:09:14;8.82;;;2.80;;
43580;SDS011;29175;51.030;4.606;2022-07-29T07:11:40;12.48;;;3.05;;
43580;SDS011;29175;51.030;4.606;2022-07-29T07:14:09;6.53;;;3.00;;
43580;SDS011;29175;51.030;4.606;2022-07-29T07:16:35;12.13;;;2.53;;
43580;SDS011;29175;51.030;4.606;2022-07-29T07:19:00;11.60;;;2.67;;
43580;SDS011;29175;51.030;4.606;2022-07-29T07:21:29;6.20;;;2.47;;
43580;SDS011;29175;51.030;4.606;2022-07-29T07:23:56;8.93;;;2.65;;
43580;SDS011;29175;51.030;4.606;2022-07-29T07:26:25;6.05;;;2.50;;
43580;SDS011;29175;51.030;4.606;2022-07-29T07:28:52;5.38;;;2.75;;
43580;SDS011;29175;51.030;4.606;2022-07-29T07:31:19;8.73;;;3.10;;
43580;SDS011;29175;51.030;4.606;2022-07-29T07:33:45;5.93;;;2.42;;
43580;SDS011;29175;51.030;4.606;2022-07-29T07:36:12;7.65;;;2.38;;
43580;SDS011;29175;51.030;4.606;2022-07-29T07:38:39;8.68;;;2.63;;
43580;SDS011;29175;51.030;4.606;2022-07-29T07:41:05;9.93;;;2.60;;
43580;SDS011;29175;51.030;4.606;2022-07-29T07:43:34;6.60;;;2.42;;
43580;SDS011;29175;51.030;4.606;2022-07-29T07:46:00;40.33;;;3.85;;
43580;SDS011;29175;51.030;4.606;2022-07-29T07:48:29;7.05;;;2.63;;
43580;SDS011;29175;51.030;4.606;2022-07-29T07:50:56;5.65;;;2.05;;
43580;SDS011;29175;51.030;4.606;2022-07-29T07:53:23;6.57;;;2.42;;
43580;SDS011;29175;51.030;4.606;2022-07-29T07:55:55;7.53;;;2.08;;
43580;SDS011;29175;51.030;4.606;2022-07-29T07:58:22;9.57;;;2.75;;
43580;SDS011;29175;51.030;4.606;2022-07-29T08:00:48;6.50;;;2.20;;
43580;SDS011;29175;51.030;4.606;2022-07-29T08:03:14;6.47;;;2.70;;
43580;SDS011;29175;51.030;4.606;2022-07-29T08:05:41;5.13;;;2.08;;
43580;SDS011;29175;51.030;4.606;2022-07-29T08:10:37;5.80;;;2.47;;
43580;SDS011;29175;51.030;4.606;2022-07-29T08:18:29;6.57;;;2.00;;
43580;SDS011;29175;51.030;4.606;2022-07-29T08:20:56;6.10;;;2.15;;
43580;SDS011;29175;51.030;4.606;2022-07-29T08:23:24;9.65;;;2.20;;
43580;SDS011;29175;51.030;4.606;2022-07-29T08:25:53;5.63;;;2.20;;
43580;SDS011;29175;51.030;4.606;2022-07-29T08:28:18;6.95;;;2.60;;
43580;SDS011;29175;51.030;4.606;2022-07-29T08:30:45;4.30;;;1.77;;
43580;SDS011;29175;51.030;4.606;2022-07-29T08:33:12;3.50;;;2.10;;
43580;SDS011;29175;51.030;4.606;2022-07-29T08:35:38;3.20;;;2.10;;
43580;SDS011;29175;51.030;4.606;2022-07-29T08:38:04;3.13;;;1.80;;
43580;SDS011;29175;51.030;4.606;2022-07-29T08:40:30;4.75;;;1.88;;
43580;SDS011;29175;51.030;4.606;2022-07-29T08:42:56;4.57;;;2.13;;
43580;SDS011;29175;51.030;4.606;2022-07-29T08:45:22;5.82;;;1.80;;
43580;SDS011;29175;51.030;4.606;2022-07-29T08:47:51;5.85;;;1.98;;
43580;SDS011;29175;51.030;4.606;2022-07-29T08:52:47;4.55;;;1.63;;
43580;SDS011;29175;51.030;4.606;2022-07-29T08:55:14;5.45;;;2.03;;
43580;SDS011;29175;51.030;4.606;2022-07-29T08:57:41;6.30;;;1.75;;
43580;SDS011;29175;51.030;4.606;2022-07-29T09:00:07;5.43;;;1.85;;
43580;SDS011;29175;51.030;4.606;2022-07-29T09:02:37;4.90;;;1.70;;
43580;SDS011;29175;51.030;4.606;2022-07-29T09:05:06;5.60;;;2.00;;
43580;SDS011;29175;51.030;4.606;2022-07-29T09:07:32;4.38;;;1.70;;
43580;SDS011;29175;51.030;4.606;2022-07-29T09:09:58;6.25;;;1.70;;
43580;SDS011;29175;51.030;4.606;2022-07-29T09:12:25;5.85;;;1.67;;
43580;SDS011;29175;51.030;4.606;2022-07-29T09:14:52;7.15;;;2.03;;
43580;SDS011;29175;51.030;4.606;2022-07-29T09:17:38;4.50;;;1.70;;
43580;SDS011;29175;51.030;4.606;2022-07-29T09:22:41;3.47;;;1.63;;
43580;SDS011;29175;51.030;4.606;2022-07-29T09:25:07;6.65;;;1.63;;
43580;SDS011;29175;51.030;4.606;2022-07-29T09:27:33;4.22;;;1.48;;
43580;SDS011;29175;51.030;4.606;2022-07-29T09:30:03;6.45;;;1.80;;
43580;SDS011;29175;51.030;4.606;2022-07-29T09:32:31;4.97;;;1.70;;
43580;SDS011;29175;51.030;4.606;2022-07-29T09:35:17;8.25;;;1.70;;
43580;SDS011;29175;51.030;4.606;2022-07-29T09:37:45;4.55;;;1.67;;
43580;SDS011;29175;51.030;4.606;2022-07-29T09:40:12;4.15;;;1.70;;
43580;SDS011;29175;51.030;4.606;2022-07-29T09:42:45;4.95;;;1.55;;
43580;SDS011;29175;51.030;4.606;2022-07-29T09:45:31;4.25;;;1.75;;
43580;SDS011;29175;51.030;4.606;2022-07-29T09:47:59;4.05;;;1.50;;
43580;SDS011;29175;51.030;4.606;2022-07-29T09:50:43;5.78;;;1.70;;
43580;SDS011;29175;51.030;4.606;2022-07-29T09:53:10;4.60;;;1.45;;
43580;SDS011;29175;51.030;4.606;2022-07-29T09:55:47;4.28;;;1.58;;
43580;SDS011;29175;51.030;4.606;2022-07-29T09:58:21;6.05;;;1.67;;
43580;SDS011;29175;51.030;4.606;2022-07-29T10:00:48;3.78;;;1.70;;
43580;SDS011;29175;51.030;4.606;2022-07-29T10:03:17;6.68;;;1.35;;
43580;SDS011;29175;51.030;4.606;2022-07-29T10:05:43;6.13;;;1.52;;
43580;SDS011;29175;51.030;4.606;2022-07-29T10:08:10;5.15;;;1.67;;
43580;SDS011;29175;51.030;4.606;2022-07-29T10:10:41;5.18;;;1.60;;
43580;SDS011;29175;51.030;4.606;2022-07-29T10:13:11;3.05;;;1.60;;
43580;SDS011;29175;51.030;4.606;2022-07-29T10:15:39;6.82;;;1.83;;
43580;SDS011;29175;51.030;4.606;2022-07-29T10:18:09;3.85;;;1.45;;
43580;SDS011;29175;51.030;4.606;2022-07-29T10:20:36;3.63;;;1.58;;
43580;SDS011;29175;51.030;4.606;2022-07-29T10:23:03;3.50;;;1.50;;
43580;SDS011;29175;51.030;4.606;2022-07-29T10:25:32;4.15;;;1.58;;
43580;SDS011;29175;51.030;4.606;2022-07-29T10:27:59;2.55;;;1.17;;
43580;SDS011;29175;51.030;4.606;2022-07-29T10:30:26;4.38;;;1.42;;
43580;SDS011;29175;51.030;4.606;2022-07-29T10:35:59;5.97;;;1.50;;
43580;SDS011;29175;51.030;4.606;2022-07-29T10:41:33;3.70;;;1.40;;
43580;SDS011;29175;51.030;4.606;2022-07-29T10:44:18;5.28;;;1.40;;
43580;SDS011;29175;51.030;4.606;2022-07-29T10:46:47;3.33;;;1.30;;
43580;SDS011;29175;51.030;4.606;2022-07-29T10:49:20;4.65;;;1.52;;
43580;SDS011;29175;51.030;4.606;2022-07-29T10:51:54;6.82;;;1.40;;
43580;SDS011;29175;51.030;4.606;2022-07-29T10:54:43;4.15;;;1.40;;
43580;SDS011;29175;51.030;4.606;2022-07-29T11:05:09;7.72;;;1.70;;
43580;SDS011;29175;51.030;4.606;2022-07-29T11:10:43;4.25;;;1.40;;
43580;SDS011;29175;51.030;4.606;2022-07-29T11:13:12;5.32;;;1.73;;
43580;SDS011;29175;51.030;4.606;2022-07-29T11:15:59;3.00;;;1.42;;
43580;SDS011;29175;51.030;4.606;2022-07-29T11:18:25;5.88;;;1.40;;
43580;SDS011;29175;51.030;4.606;2022-07-29T11:20:52;3.55;;;1.60;;
43580;SDS011;29175;51.030;4.606;2022-07-29T11:28:52;5.43;;;2.00;;
43580;SDS011;29175;51.030;4.606;2022-07-29T11:31:33;3.97;;;1.52;;
43580;SDS011;29175;51.030;4.606;2022-07-29T11:40:07;4.93;;;1.63;;
43580;SDS011;29175;51.030;4.606;2022-07-29T11:47:27;5.28;;;1.63;;
43580;SDS011;29175;51.030;4.606;2022-07-29T11:49:55;8.75;;;1.67;;
43580;SDS011;29175;51.030;4.606;2022-07-29T11:52:23;6.18;;;1.40;;
43580;SDS011;29175;51.030;4.606;2022-07-29T11:54:58;2.65;;;1.40;;
43580;SDS011;29175;51.030;4.606;2022-07-29T11:57:28;2.53;;;1.48;;
43580;SDS011;29175;51.030;4.606;2022-07-29T11:59:57;5.53;;;1.75;;
43580;SDS011;29175;51.030;4.606;2022-07-29T12:02:24;3.28;;;1.60;;
43580;SDS011;29175;51.030;4.606;2022-07-29T12:05:05;6.63;;;1.73;;
43580;SDS011;29175;51.030;4.606;2022-07-29T12:07:33;3.15;;;1.70;;
43580;SDS011;29175;51.030;4.606;2022-07-29T12:10:00;6.35;;;1.92;;
43580;SDS011;29175;51.030;4.606;2022-07-29T12:12:27;6.40;;;2.05;;
43580;SDS011;29175;51.030;4.606;2022-07-29T12:14:53;6.50;;;1.90;;
43580;SDS011;29175;51.030;4.606;2022-07-29T12:17:26;4.43;;;1.85;;
43580;SDS011;29175;51.030;4.606;2022-07-29T12:19:58;4.07;;;1.70;;
43580;SDS011;29175;51.030;4.606;2022-07-29T12:22:31;6.78;;;1.80;;
43580;SDS011;29175;51.030;4.606;2022-07-29T12:25:12;6.07;;;1.67;;
43580;SDS011;29175;51.030;4.606;2022-07-29T12:27:44;6.65;;;1.60;;
43580;SDS011;29175;51.030;4.606;2022-07-29T12:30:11;5.80;;;1.80;;
43580;SDS011;29175;51.030;4.606;2022-07-29T12:35:19;4.28;;;1.95;;
43580;SDS011;29175;51.030;4.606;2022-07-29T12:37:46;5.90;;;1.88;;
43580;SDS011;29175;51.030;4.606;2022-07-29T12:45:38;5.80;;;2.00;;
43580;SDS011;29175;51.030;4.606;2022-07-29T12:48:11;3.45;;;1.80;;
43580;SDS011;29175;51.030;4.606;2022-07-29T12:50:54;6.20;;;2.25;;
43580;SDS011;29175;51.030;4.606;2022-07-29T12:53:26;7.95;;;2.28;;
43580;SDS011;29175;51.030;4.606;2022-07-29T12:55:54;3.58;;;1.70;;
43580;SDS011;29175;51.030;4.606;2022-07-29T12:58:28;5.90;;;2.72;;
43580;SDS011;29175;51.030;4.606;2022-07-29T13:01:03;5.55;;;2.05;;
43580;SDS011;29175;51.030;4.606;2022-07-29T13:11:44;7.60;;;1.83;;
43580;SDS011;29175;51.030;4.606;2022-07-29T13:14:14;9.40;;;2.15;;
43580;SDS011;29175;51.030;4.606;2022-07-29T13:17:09;10.23;;;2.60;;
43580;SDS011;29175;51.030;4.606;2022-07-29T13:19:40;5.57;;;2.63;;
43580;SDS011;29175;51.030;4.606;2022-07-29T13:24:55;6.70;;;2.58;;
43580;SDS011;29175;51.030;4.606;2022-07-29T13:27:22;9.13;;;2.30;;
43580;SDS011;29175;51.030;4.606;2022-07-29T13:29:51;7.43;;;2.30;;
43580;SDS011;29175;51.030;4.606;2022-07-29T13:32:20;7.13;;;2.50;;
43580;SDS011;29175;51.030;4.606;2022-07-29T13:34:46;5.80;;;2.50;;
43580;SDS011;29175;51.030;4.606;2022-07-29T13:37:13;6.80;;;2.70;;
43580;SDS011;29175;51.030;4.606;2022-07-29T13:39:44;9.82;;;2.50;;
43580;SDS011;29175;51.030;4.606;2022-07-29T13:42:12;7.90;;;2.53;;
43580;SDS011;29175;51.030;4.606;2022-07-29T13:44:39;8.32;;;2.83;;
43580;SDS011;29175;51.030;4.606;2022-07-29T13:47:06;10.25;;;2.65;;
43580;SDS011;29175;51.030;4.606;2022-07-29T13:49:32;7.00;;;2.90;;
43580;SDS011;29175;51.030;4.606;2022-07-29T13:51:59;8.88;;;2.97;;
43580;SDS011;29175;51.030;4.606;2022-07-29T13:54:25;10.30;;;3.00;;
43580;SDS011;29175;51.030;4.606;2022-07-29T13:56:51;6.90;;;3.28;;
43580;SDS011;29175;51.030;4.606;2022-07-29T13:59:20;7.53;;;3.08;;
43580;SDS011;29175;51.030;4.606;2022-07-29T14:04:16;7.72;;;3.05;;
43580;SDS011;29175;51.030;4.606;2022-07-29T14:06:44;22.83;;;3.13;;
43580;SDS011;29175;51.030;4.606;2022-07-29T14:09:09;7.38;;;3.05;;
43580;SDS011;29175;51.030;4.606;2022-07-29T14:11:35;7.88;;;3.47;;
43580;SDS011;29175;51.030;4.606;2022-07-29T14:14:03;6.25;;;2.97;;
43580;SDS011;29175;51.030;4.606;2022-07-29T14:16:29;4.97;;;2.80;;
43580;SDS011;29175;51.030;4.606;2022-07-29T14:18:54;6.35;;;2.92;;
43580;SDS011;29175;51.030;4.606;2022-07-29T14:21:20;10.00;;;2.90;;
43580;SDS011;29175;51.030;4.606;2022-07-29T14:23:46;9.73;;;3.20;;
43580;SDS011;29175;51.030;4.606;2022-07-29T14:26:12;6.63;;;2.85;;
43580;SDS011;29175;51.030;4.606;2022-07-29T14:28:38;9.80;;;2.80;;
43580;SDS011;29175;51.030;4.606;2022-07-29T14:31:04;4.47;;;2.33;;
43580;SDS011;29175;51.030;4.606;2022-07-29T14:33:30;9.88;;;2.70;;
43580;SDS011;29175;51.030;4.606;2022-07-29T14:35:55;8.15;;;2.50;;
43580;SDS011;29175;51.030;4.606;2022-07-29T14:38:21;4.30;;;1.85;;
43580;SDS011;29175;51.030;4.606;2022-07-29T14:40:47;4.95;;;2.10;;
43580;SDS011;29175;51.030;4.606;2022-07-29T14:43:13;7.68;;;2.20;;
43580;SDS011;29175;51.030;4.606;2022-07-29T14:45:40;8.32;;;2.63;;
43580;SDS011;29175;51.030;4.606;2022-07-29T14:48:06;4.03;;;2.13;;
43580;SDS011;29175;51.030;4.606;2022-07-29T14:50:32;5.38;;;1.90;;
43580;SDS011;29175;51.030;4.606;2022-07-29T14:52:58;11.85;;;2.10;;
43580;SDS011;29175;51.030;4.606;2022-07-29T14:55:25;9.63;;;2.58;;
43580;SDS011;29175;51.030;4.606;2022-07-29T14:57:51;5.50;;;2.50;;
43580;SDS011;29175;51.030;4.606;2022-07-29T15:00:17;7.47;;;2.63;;
43580;SDS011;29175;51.030;4.606;2022-07-29T15:02:43;6.70;;;2.20;;
43580;SDS011;29175;51.030;4.606;2022-07-29T15:05:08;8.65;;;2.80;;
43580;SDS011;29175;51.030;4.606;2022-07-29T15:07:34;10.73;;;1.92;;
43580;SDS011;29175;51.030;4.606;2022-07-29T15:10:00;9.13;;;2.50;;
43580;SDS011;29175;51.030;4.606;2022-07-29T15:12:27;6.82;;;2.53;;
43580;SDS011;29175;51.030;4.606;2022-07-29T15:14:53;4.43;;;2.05;;
43580;SDS011;29175;51.030;4.606;2022-07-29T15:17:18;4.00;;;2.03;;
43580;SDS011;29175;51.030;4.606;2022-07-29T15:19:45;5.15;;;2.03;;
43580;SDS011;29175;51.030;4.606;2022-07-29T15:22:10;3.83;;;2.20;;
43580;SDS011;29175;51.030;4.606;2022-07-29T15:24:36;5.47;;;2.10;;
43580;SDS011;29175;51.030;4.606;2022-07-29T15:27:02;5.20;;;2.42;;
43580;SDS011;29175;51.030;4.606;2022-07-29T15:29:28;7.22;;;2.17;;
43580;SDS011;29175;51.030;4.606;2022-07-29T15:31:54;8.65;;;2.60;;
43580;SDS011;29175;51.030;4.606;2022-07-29T15:34:20;4.78;;;2.38;;
43580;SDS011;29175;51.030;4.606;2022-07-29T15:36:46;6.00;;;2.50;;
43580;SDS011;29175;51.030;4.606;2022-07-29T15:39:11;9.20;;;2.22;;
43580;SDS011;29175;51.030;4.606;2022-07-29T15:41:37;8.65;;;2.40;;
43580;SDS011;29175;51.030;4.606;2022-07-29T15:44:03;6.40;;;2.00;;
43580;SDS011;29175;51.030;4.606;2022-07-29T15:46:28;4.22;;;2.35;;
43580;SDS011;29175;51.030;4.606;2022-07-29T15:49:12;7.15;;;2.50;;
43580;SDS011;29175;51.030;4.606;2022-07-29T15:51:38;3.88;;;2.10;;
43580;SDS011;29175;51.030;4.606;2022-07-29T15:54:04;7.32;;;2.30;;
43580;SDS011;29175;51.030;4.606;2022-07-29T15:56:30;3.47;;;2.20;;
43580;SDS011;29175;51.030;4.606;2022-07-29T15:58:57;6.05;;;2.40;;
43580;SDS011;29175;51.030;4.606;2022-07-29T16:01:23;7.05;;;2.45;;
43580;SDS011;29175;51.030;4.606;2022-07-29T16:03:50;6.78;;;2.30;;
43580;SDS011;29175;51.030;4.606;2022-07-29T16:06:16;7.55;;;2.08;;
43580;SDS011;29175;51.030;4.606;2022-07-29T16:08:43;6.63;;;2.38;;
43580;SDS011;29175;51.030;4.606;2022-07-29T16:11:11;6.60;;;2.53;;
43580;SDS011;29175;51.030;4.606;2022-07-29T16:13:37;6.72;;;2.63;;
43580;SDS011;29175;51.030;4.606;2022-07-29T16:16:03;4.53;;;2.20;;
43580;SDS011;29175;51.030;4.606;2022-07-29T16:21:01;6.65;;;2.20;;
43580;SDS011;29175;51.030;4.606;2022-07-29T16:23:27;5.72;;;2.80;;
43580;SDS011;29175;51.030;4.606;2022-07-29T16:25:53;8.00;;;2.70;;
43580;SDS011;29175;51.030;4.606;2022-07-29T16:28:24;5.80;;;2.17;;
43580;SDS011;29175;51.030;4.606;2022-07-29T16:30:50;5.55;;;2.55;;
43580;SDS011;29175;51.030;4.606;2022-07-29T16:33:16;7.22;;;2.65;;
43580;SDS011;29175;51.030;4.606;2022-07-29T16:38:10;8.75;;;2.35;;
43580;SDS011;29175;51.030;4.606;2022-07-29T16:43:08;9.30;;;2.50;;
43580;SDS011;29175;51.030;4.606;2022-07-29T16:45:35;6.57;;;2.63;;
43580;SDS011;29175;51.030;4.606;2022-07-29T16:48:02;7.25;;;2.67;;
43580;SDS011;29175;51.030;4.606;2022-07-29T16:50:28;6.50;;;2.50;;
43580;SDS011;29175;51.030;4.606;2022-07-29T16:52:58;6.90;;;2.92;;
43580;SDS011;29175;51.030;4.606;2022-07-29T16:55:25;5.77;;;2.87;;
43580;SDS011;29175;51.030;4.606;2022-07-29T17:00:20;8.07;;;3.10;;
43580;SDS011;29175;51.030;4.606;2022-07-29T17:02:47;5.20;;;2.60;;
43580;SDS011;29175;51.030;4.606;2022-07-29T17:05:16;10.27;;;2.55;;
43580;SDS011;29175;51.030;4.606;2022-07-29T17:07:43;7.32;;;3.28;;
43580;SDS011;29175;51.030;4.606;2022-07-29T17:10:10;7.18;;;2.88;;
43580;SDS011;29175;51.030;4.606;2022-07-29T17:15:06;7.63;;;2.58;;
43580;SDS011;29175;51.030;4.606;2022-07-29T17:17:37;5.68;;;2.70;;